sensor_id;sensor_type;location;lat;lon;timestamp;temperature;humidity
12885;DHT22;6510;51.362;7.370;2022-08-03T00:01:33;19.80;99.90
12885;DHT22;6510;51.362;7.370;2022-08-03T00:03:59;19.80;99.90
12885;DHT22;6510;51.362;7.370;2022-08-03T00:06:25;19.80;99.90
12885;DHT22;6510;51.362;7.370;2022-08-03T00:08:50;19.90;99.90
12885;DHT22;6510;51.362;7.370;2022-08-03T00:11:16;19.80;99.90
12885;DHT22;6510;51.362;7.370;2022-08-03T00:13:42;19.90;99.90
12885;DHT22;6510;51.362;7.370;2022-08-03T00:16:08;19.90;99.90
12885;DHT22;6510;51.362;7.370;2022-08-03T00:18:35;19.90;99.90
12885;DHT22;6510;51.362;7.370;2022-08-03T00:21:02;20.00;99.90
12885;DHT22;6510;51.362;7.370;2022-08-03T00:23:27;20.10;99.90
12885;DHT22;6510;51.362;7.370;2022-08-03T00:25:53;20.00;99.90
12885;DHT22;6510;51.362;7.370;2022-08-03T00:28:19;20.10;99.90
12885;DHT22;6510;51.362;7.370;2022-08-03T00:30:45;20.10;99.90
12885;DHT22;6510;51.362;7.370;2022-08-03T00:33:11;20.00;99.90
12885;DHT22;6510;51.362;7.370;2022-08-03T00:35:36;20.10;99.90
12885;DHT22;6510;51.362;7.370;2022-08-03T00:38:02;20.00;99.90
12885;DHT22;6510;51.362;7.370;2022-08-03T00:40:28;20.00;99.90
12885;DHT22;6510;51.362;7.370;2022-08-03T00:45:39;19.90;99.90
12885;DHT22;6510;51.362;7.370;2022-08-03T00:48:07;19.70;99.90
12885;DHT22;6510;51.362;7.370;2022-08-03T00:50:37;19.60;99.90
12885;DHT22;6510;51.362;7.370;2022-08-03T00:53:04;19.50;99.90
12885;DHT22;6510;51.362;7.370;2022-08-03T00:55:31;19.50;99.90
12885;DHT22;6510;51.362;7.370;2022-08-03T00:57:57;19.50;99.90
12885;DHT22;6510;51.362;7.370;2022-08-03T01:00:26;19.50;99.90
12885;DHT22;6510;51.362;7.370;2022-08-03T01:02:53;19.50;99.90
12885;DHT22;6510;51.362;7.370;2022-08-03T01:05:20;19.60;99.90
12885;DHT22;6510;51.362;7.370;2022-08-03T01:13:40;19.60;99.90
12885;DHT22;6510;51.362;7.370;2022-08-03T01:19:07;19.60;99.90
12885;DHT22;6510;51.362;7.370;2022-08-03T01:21:57;19.60;99.90
12885;DHT22;6510;51.362;7.370;2022-08-03T01:27:09;19.60;99.90
12885;DHT22;6510;51.362;7.370;2022-08-03T01:29:51;19.60;99.90
12885;DHT22;6510;51.362;7.370;2022-08-03T01:32:47;19.50;99.90
12885;DHT22;6510;51.362;7.370;2022-08-03T01:35:25;19.50;99.90
12885;DHT22;6510;51.362;7.370;2022-08-03T01:37:57;19.50;99.90
12885;DHT22;6510;51.362;7.370;2022-08-03T01:40:26;19.60;99.90
12885;DHT22;6510;51.362;7.370;2022-08-03T01:42:54;19.60;99.90
12885;DHT22;6510;51.362;7.370;2022-08-03T01:45:22;19.60;99.90
12885;DHT22;6510;51.362;7.370;2022-08-03T01:47:49;19.60;99.90
12885;DHT22;6510;51.362;7.370;2022-08-03T01:50:21;19.60;99.90
12885;DHT22;6510;51.362;7.370;2022-08-03T01:52:48;19.60;99.90
12885;DHT22;6510;51.362;7.370;2022-08-03T01:55:17;19.50;99.90
12885;DHT22;6510;51.362;7.370;2022-08-03T01:57:44;19.40;99.90
12885;DHT22;6510;51.362;7.370;2022-08-03T02:00:13;19.40;99.90
12885;DHT22;6510;51.362;7.370;2022-08-03T02:02:39;19.40;99.90
12885;DHT22;6510;51.362;7.370;2022-08-03T02:05:08;19.40;99.90
12885;DHT22;6510;51.362;7.370;2022-08-03T02:07:35;19.40;99.90
12885;DHT22;6510;51.362;7.370;2022-08-03T02:10:04;19.40;99.90
12885;DHT22;6510;51.362;7.370;2022-08-03T02:12:30;19.30;99.90
12885;DHT22;6510;51.362;7.370;2022-08-03T02:14:58;19.30;99.90
12885;DHT22;6510;51.362;7.370;2022-08-03T02:17:25;19.20;99.90
12885;DHT22;6510;51.362;7.370;2022-08-03T02:19:53;19.20;99.90
12885;DHT22;6510;51.362;7.370;2022-08-03T02:22:20;19.20;99.90
12885;DHT22;6510;51.362;7.370;2022-08-03T02:24:46;19.30;99.90
12885;DHT22;6510;51.362;7.370;2022-08-03T02:27:30;19.30;99.90
12885;DHT22;6510;51.362;7.370;2022-08-03T02:30:08;19.30;99.90
12885;DHT22;6510;51.362;7.370;2022-08-03T02:32:37;19.30;99.90
12885;DHT22;6510;51.362;7.370;2022-08-03T02:35:07;19.20;99.90
12885;DHT22;6510;51.362;7.370;2022-08-03T02:37:36;19.20;99.90
12885;DHT22;6510;51.362;7.370;2022-08-03T02:40:07;19.20;99.90
12885;DHT22;6510;51.362;7.370;2022-08-03T02:42:35;19.20;99.90
12885;DHT22;6510;51.362;7.370;2022-08-03T02:45:05;19.10;99.90
12885;DHT22;6510;51.362;7.370;2022-08-03T02:47:35;19.10;99.90
12885;DHT22;6510;51.362;7.370;2022-08-03T02:50:02;19.10;99.90
12885;DHT22;6510;51.362;7.370;2022-08-03T02:52:29;19.00;99.90
12885;DHT22;6510;51.362;7.370;2022-08-03T02:54:59;18.90;99.90
12885;DHT22;6510;51.362;7.370;2022-08-03T02:57:27;19.00;99.90
12885;DHT22;6510;51.362;7.370;2022-08-03T02:59:54;19.00;99.90
12885;DHT22;6510;51.362;7.370;2022-08-03T03:02:21;19.00;99.90
12885;DHT22;6510;51.362;7.370;2022-08-03T03:04:49;19.00;99.90
12885;DHT22;6510;51.362;7.370;2022-08-03T03:07:16;19.00;99.90
12885;DHT22;6510;51.362;7.370;2022-08-03T03:09:43;19.00;99.90
12885;DHT22;6510;51.362;7.370;2022-08-03T03:12:09;18.90;99.90
12885;DHT22;6510;51.362;7.370;2022-08-03T03:14:37;19.00;99.90
12885;DHT22;6510;51.362;7.370;2022-08-03T03:17:05;18.90;99.90
12885;DHT22;6510;51.362;7.370;2022-08-03T03:19:32;19.00;99.90
12885;DHT22;6510;51.362;7.370;2022-08-03T03:22:04;19.00;99.90
12885;DHT22;6510;51.362;7.370;2022-08-03T03:24:32;19.00;99.90
12885;DHT22;6510;51.362;7.370;2022-08-03T03:26:59;19.00;99.90
12885;DHT22;6510;51.362;7.370;2022-08-03T03:29:25;18.90;99.90
12885;DHT22;6510;51.362;7.370;2022-08-03T03:31:51;18.90;99.90
12885;DHT22;6510;51.362;7.370;2022-08-03T03:34:18;18.90;99.90
12885;DHT22;6510;51.362;7.370;2022-08-03T03:36:44;18.90;99.90
12885;DHT22;6510;51.362;7.370;2022-08-03T03:39:10;18.90;99.90
12885;DHT22;6510;51.362;7.370;2022-08-03T03:41:36;19.00;99.90
12885;DHT22;6510;51.362;7.370;2022-08-03T03:44:02;19.00;99.90
12885;DHT22;6510;51.362;7.370;2022-08-03T03:46:28;19.00;99.90
12885;DHT22;6510;51.362;7.370;2022-08-03T03:48:54;19.10;99.90
12885;DHT22;6510;51.362;7.370;2022-08-03T03:51:19;19.10;99.90
12885;DHT22;6510;51.362;7.370;2022-08-03T03:54:03;19.10;99.90
12885;DHT22;6510;51.362;7.370;2022-08-03T03:56:32;19.10;99.90
12885;DHT22;6510;51.362;7.370;2022-08-03T03:58:58;19.00;99.90
12885;DHT22;6510;51.362;7.370;2022-08-03T04:01:23;18.90;99.90
12885;DHT22;6510;51.362;7.370;2022-08-03T04:03:50;19.00;99.90
12885;DHT22;6510;51.362;7.370;2022-08-03T04:06:15;18.90;99.90
12885;DHT22;6510;51.362;7.370;2022-08-03T04:09:00;18.90;99.90
12885;DHT22;6510;51.362;7.370;2022-08-03T04:11:49;18.90;99.90
12885;DHT22;6510;51.362;7.370;2022-08-03T04:14:27;18.90;99.90
12885;DHT22;6510;51.362;7.370;2022-08-03T04:17:03;18.90;99.90
12885;DHT22;6510;51.362;7.370;2022-08-03T04:19:36;19.00;99.90
12885;DHT22;6510;51.362;7.370;2022-08-03T04:22:06;18.90;99.90
12885;DHT22;6510;51.362;7.370;2022-08-03T04:24:47;18.90;99.90
12885;DHT22;6510;51.362;7.370;2022-08-03T04:27:18;18.90;99.90
12885;DHT22;6510;51.362;7.370;2022-08-03T04:29:47;19.00;99.90
12885;DHT22;6510;51.362;7.370;2022-08-03T04:32:13;19.00;99.90
12885;DHT22;6510;51.362;7.370;2022-08-03T04:34:39;19.10;99.90
12885;DHT22;6510;51.362;7.370;2022-08-03T04:37:10;19.10;99.90
12885;DHT22;6510;51.362;7.370;2022-08-03T04:39:38;19.20;99.90
12885;DHT22;6510;51.362;7.370;2022-08-03T04:42:07;19.20;99.90
12885;DHT22;6510;51.362;7.370;2022-08-03T04:44:38;19.30;99.90
12885;DHT22;6510;51.362;7.370;2022-08-03T04:47:04;19.30;99.90
12885;DHT22;6510;51.362;7.370;2022-08-03T04:49:31;19.40;99.90
12885;DHT22;6510;51.362;7.370;2022-08-03T04:51:57;19.40;99.90
12885;DHT22;6510;51.362;7.370;2022-08-03T04:54:23;19.60;99.90
12885;DHT22;6510;51.362;7.370;2022-08-03T04:56:49;19.60;99.90
12885;DHT22;6510;51.362;7.370;2022-08-03T04:59:14;19.80;99.90
12885;DHT22;6510;51.362;7.370;2022-08-03T05:01:42;20.10;99.90
12885;DHT22;6510;51.362;7.370;2022-08-03T05:04:08;19.80;99.90
12885;DHT22;6510;51.362;7.370;2022-08-03T05:06:34;19.80;99.90
12885;DHT22;6510;51.362;7.370;2022-08-03T05:08:59;19.80;99.90
12885;DHT22;6510;51.362;7.370;2022-08-03T05:11:25;19.90;99.90
12885;DHT22;6510;51.362;7.370;2022-08-03T05:13:51;20.00;99.90
12885;DHT22;6510;51.362;7.370;2022-08-03T05:16:17;20.10;99.90
12885;DHT22;6510;51.362;7.370;2022-08-03T05:18:42;20.20;99.90
12885;DHT22;6510;51.362;7.370;2022-08-03T05:21:09;20.40;99.90
12885;DHT22;6510;51.362;7.370;2022-08-03T05:23:36;20.60;99.90
12885;DHT22;6510;51.362;7.370;2022-08-03T05:26:02;21.20;99.90
12885;DHT22;6510;51.362;7.370;2022-08-03T05:28:28;22.50;99.90
12885;DHT22;6510;51.362;7.370;2022-08-03T05:30:53;22.40;99.90
12885;DHT22;6510;51.362;7.370;2022-08-03T05:33:19;23.50;99.90
12885;DHT22;6510;51.362;7.370;2022-08-03T05:35:45;24.50;99.90
12885;DHT22;6510;51.362;7.370;2022-08-03T05:38:10;25.20;99.90
12885;DHT22;6510;51.362;7.370;2022-08-03T05:40:36;25.60;99.90
12885;DHT22;6510;51.362;7.370;2022-08-03T05:43:02;24.50;99.90
12885;DHT22;6510;51.362;7.370;2022-08-03T05:45:27;24.30;99.90
12885;DHT22;6510;51.362;7.370;2022-08-03T05:47:53;25.30;99.90
12885;DHT22;6510;51.362;7.370;2022-08-03T05:50:19;24.20;99.90
12885;DHT22;6510;51.362;7.370;2022-08-03T05:52:45;24.90;99.90
12885;DHT22;6510;51.362;7.370;2022-08-03T05:55:11;25.90;99.90
12885;DHT22;6510;51.362;7.370;2022-08-03T05:57:38;25.20;99.90
12885;DHT22;6510;51.362;7.370;2022-08-03T06:00:07;25.40;99.90
12885;DHT22;6510;51.362;7.370;2022-08-03T06:02:33;25.90;99.90
12885;DHT22;6510;51.362;7.370;2022-08-03T06:04:59;25.90;99.90
12885;DHT22;6510;51.362;7.370;2022-08-03T06:07:25;26.10;99.90
12885;DHT22;6510;51.362;7.370;2022-08-03T06:09:51;25.80;99.90
12885;DHT22;6510;51.362;7.370;2022-08-03T06:12:17;25.60;99.90
12885;DHT22;6510;51.362;7.370;2022-08-03T06:14:42;25.20;99.90
12885;DHT22;6510;51.362;7.370;2022-08-03T06:17:33;26.00;99.90
12885;DHT22;6510;51.362;7.370;2022-08-03T06:20:06;25.40;99.90
12885;DHT22;6510;51.362;7.370;2022-08-03T06:22:31;25.60;99.90
12885;DHT22;6510;51.362;7.370;2022-08-03T06:24:57;26.20;99.90
12885;DHT22;6510;51.362;7.370;2022-08-03T06:27:23;26.50;99.90
12885;DHT22;6510;51.362;7.370;2022-08-03T06:29:51;26.70;99.90
12885;DHT22;6510;51.362;7.370;2022-08-03T06:32:17;27.00;99.90
12885;DHT22;6510;51.362;7.370;2022-08-03T06:34:42;27.10;99.90
12885;DHT22;6510;51.362;7.370;2022-08-03T06:37:08;27.00;99.90
12885;DHT22;6510;51.362;7.370;2022-08-03T06:39:33;26.30;99.90
12885;DHT22;6510;51.362;7.370;2022-08-03T06:41:59;27.10;99.90
12885;DHT22;6510;51.362;7.370;2022-08-03T06:44:27;27.10;99.90
12885;DHT22;6510;51.362;7.370;2022-08-03T06:46:53;27.00;99.90
12885;DHT22;6510;51.362;7.370;2022-08-03T06:49:19;27.40;99.90
12885;DHT22;6510;51.362;7.370;2022-08-03T06:51:44;26.80;99.90
12885;DHT22;6510;51.362;7.370;2022-08-03T06:54:12;27.50;99.90
12885;DHT22;6510;51.362;7.370;2022-08-03T06:56:38;26.60;99.90
12885;DHT22;6510;51.362;7.370;2022-08-03T06:59:04;27.60;99.90
12885;DHT22;6510;51.362;7.370;2022-08-03T07:01:29;28.00;99.90
12885;DHT22;6510;51.362;7.370;2022-08-03T07:03:55;27.90;99.90
12885;DHT22;6510;51.362;7.370;2022-08-03T07:06:29;27.70;99.90
12885;DHT22;6510;51.362;7.370;2022-08-03T07:08:56;27.90;99.90
12885;DHT22;6510;51.362;7.370;2022-08-03T07:11:21;28.00;99.90
12885;DHT22;6510;51.362;7.370;2022-08-03T07:13:47;27.50;99.90
12885;DHT22;6510;51.362;7.370;2022-08-03T07:16:15;27.60;99.90
12885;DHT22;6510;51.362;7.370;2022-08-03T07:18:44;27.70;99.90
12885;DHT22;6510;51.362;7.370;2022-08-03T07:21:13;27.90;99.90
12885;DHT22;6510;51.362;7.370;2022-08-03T07:23:41;29.10;99.90
12885;DHT22;6510;51.362;7.370;2022-08-03T07:26:06;28.70;99.90
12885;DHT22;6510;51.362;7.370;2022-08-03T07:28:32;29.00;99.90
12885;DHT22;6510;51.362;7.370;2022-08-03T07:30:58;28.50;99.90
12885;DHT22;6510;51.362;7.370;2022-08-03T07:33:24;29.30;99.90
12885;DHT22;6510;51.362;7.370;2022-08-03T07:35:49;29.90;99.90
12885;DHT22;6510;51.362;7.370;2022-08-03T07:38:15;29.40;99.90
12885;DHT22;6510;51.362;7.370;2022-08-03T07:40:41;29.20;99.90
12885;DHT22;6510;51.362;7.370;2022-08-03T07:43:06;29.60;99.90
12885;DHT22;6510;51.362;7.370;2022-08-03T07:45:32;30.20;99.90
12885;DHT22;6510;51.362;7.370;2022-08-03T07:47:58;29.50;99.90
12885;DHT22;6510;51.362;7.370;2022-08-03T07:50:24;28.40;99.90
12885;DHT22;6510;51.362;7.370;2022-08-03T07:52:50;28.90;99.90
12885;DHT22;6510;51.362;7.370;2022-08-03T07:55:22;29.50;99.90
12885;DHT22;6510;51.362;7.370;2022-08-03T07:58:04;29.50;99.90
12885;DHT22;6510;51.362;7.370;2022-08-03T08:00:31;29.20;99.90
12885;DHT22;6510;51.362;7.370;2022-08-03T08:02:57;29.60;99.90
12885;DHT22;6510;51.362;7.370;2022-08-03T08:05:22;29.40;99.90
12885;DHT22;6510;51.362;7.370;2022-08-03T08:07:48;28.30;99.90
12885;DHT22;6510;51.362;7.370;2022-08-03T08:10:14;28.70;99.90
12885;DHT22;6510;51.362;7.370;2022-08-03T08:12:40;28.30;99.90
12885;DHT22;6510;51.362;7.370;2022-08-03T08:15:06;29.20;99.90
12885;DHT22;6510;51.362;7.370;2022-08-03T08:18:02;28.50;99.90
12885;DHT22;6510;51.362;7.370;2022-08-03T08:20:30;29.10;99.90
12885;DHT22;6510;51.362;7.370;2022-08-03T08:22:57;28.90;99.90
12885;DHT22;6510;51.362;7.370;2022-08-03T08:25:24;29.10;99.90
12885;DHT22;6510;51.362;7.370;2022-08-03T08:27:50;28.80;99.90
12885;DHT22;6510;51.362;7.370;2022-08-03T08:30:18;29.30;99.90
12885;DHT22;6510;51.362;7.370;2022-08-03T08:32:48;30.10;99.90
12885;DHT22;6510;51.362;7.370;2022-08-03T08:35:15;28.90;99.90
12885;DHT22;6510;51.362;7.370;2022-08-03T08:37:41;28.30;99.90
12885;DHT22;6510;51.362;7.370;2022-08-03T08:40:08;29.40;99.90
12885;DHT22;6510;51.362;7.370;2022-08-03T08:42:36;29.90;99.90
12885;DHT22;6510;51.362;7.370;2022-08-03T08:45:03;29.50;99.90
12885;DHT22;6510;51.362;7.370;2022-08-03T08:47:31;29.30;99.90
12885;DHT22;6510;51.362;7.370;2022-08-03T08:49:58;28.80;99.90
12885;DHT22;6510;51.362;7.370;2022-08-03T08:52:27;28.30;99.90
12885;DHT22;6510;51.362;7.370;2022-08-03T08:54:58;28.00;99.90
12885;DHT22;6510;51.362;7.370;2022-08-03T08:57:28;28.10;99.90
12885;DHT22;6510;51.362;7.370;2022-08-03T08:59:55;29.50;99.90
12885;DHT22;6510;51.362;7.370;2022-08-03T09:02:22;29.90;99.90
12885;DHT22;6510;51.362;7.370;2022-08-03T09:04:49;30.90;99.90
12885;DHT22;6510;51.362;7.370;2022-08-03T09:07:17;31.10;99.90
12885;DHT22;6510;51.362;7.370;2022-08-03T09:09:43;31.80;99.90
12885;DHT22;6510;51.362;7.370;2022-08-03T09:12:09;31.90;99.90
12885;DHT22;6510;51.362;7.370;2022-08-03T09:14:34;32.00;99.90
12885;DHT22;6510;51.362;7.370;2022-08-03T09:17:01;30.30;99.90
12885;DHT22;6510;51.362;7.370;2022-08-03T09:19:32;30.30;99.90
12885;DHT22;6510;51.362;7.370;2022-08-03T09:22:16;31.50;99.90
12885;DHT22;6510;51.362;7.370;2022-08-03T09:24:55;32.00;99.90
12885;DHT22;6510;51.362;7.370;2022-08-03T09:27:22;31.30;99.90
12885;DHT22;6510;51.362;7.370;2022-08-03T09:29:48;31.20;99.90
12885;DHT22;6510;51.362;7.370;2022-08-03T09:32:14;31.30;99.90
12885;DHT22;6510;51.362;7.370;2022-08-03T09:34:41;31.60;99.90
12885;DHT22;6510;51.362;7.370;2022-08-03T09:37:15;32.90;99.90
12885;DHT22;6510;51.362;7.370;2022-08-03T09:39:40;32.20;99.90
12885;DHT22;6510;51.362;7.370;2022-08-03T09:44:38;32.40;99.90
12885;DHT22;6510;51.362;7.370;2022-08-03T09:47:07;33.30;99.90
12885;DHT22;6510;51.362;7.370;2022-08-03T09:49:34;32.70;99.90
12885;DHT22;6510;51.362;7.370;2022-08-03T09:52:10;32.60;99.90
12885;DHT22;6510;51.362;7.370;2022-08-03T09:54:36;32.00;99.90
12885;DHT22;6510;51.362;7.370;2022-08-03T09:57:02;32.50;99.90
12885;DHT22;6510;51.362;7.370;2022-08-03T09:59:30;31.90;99.90
12885;DHT22;6510;51.362;7.370;2022-08-03T10:01:57;31.70;99.90
12885;DHT22;6510;51.362;7.370;2022-08-03T10:04:24;31.70;99.90
12885;DHT22;6510;51.362;7.370;2022-08-03T10:07:06;32.60;99.90
12885;DHT22;6510;51.362;7.370;2022-08-03T10:09:33;32.80;99.90
12885;DHT22;6510;51.362;7.370;2022-08-03T10:12:10;32.50;99.90
12885;DHT22;6510;51.362;7.370;2022-08-03T10:14:37;32.60;99.90
12885;DHT22;6510;51.362;7.370;2022-08-03T10:17:03;32.50;99.90
12885;DHT22;6510;51.362;7.370;2022-08-03T10:19:29;32.90;99.90
12885;DHT22;6510;51.362;7.370;2022-08-03T10:21:56;33.00;99.90
12885;DHT22;6510;51.362;7.370;2022-08-03T10:24:28;32.80;99.90
12885;DHT22;6510;51.362;7.370;2022-08-03T10:27:06;32.40;99.90
12885;DHT22;6510;51.362;7.370;2022-08-03T10:29:44;32.80;99.90
12885;DHT22;6510;51.362;7.370;2022-08-03T10:32:39;33.00;99.90
12885;DHT22;6510;51.362;7.370;2022-08-03T10:35:15;33.60;99.90
12885;DHT22;6510;51.362;7.370;2022-08-03T10:37:57;33.10;99.90
12885;DHT22;6510;51.362;7.370;2022-08-03T10:40:23;32.40;99.90
12885;DHT22;6510;51.362;7.370;2022-08-03T10:42:53;32.40;99.90
12885;DHT22;6510;51.362;7.370;2022-08-03T10:45:23;32.40;99.90
12885;DHT22;6510;51.362;7.370;2022-08-03T10:47:50;32.90;99.90
12885;DHT22;6510;51.362;7.370;2022-08-03T10:50:18;33.30;99.90
12885;DHT22;6510;51.362;7.370;2022-08-03T10:52:58;33.60;99.90
12885;DHT22;6510;51.362;7.370;2022-08-03T10:55:45;33.30;99.90
12885;DHT22;6510;51.362;7.370;2022-08-03T11:01:07;33.80;99.90
12885;DHT22;6510;51.362;7.370;2022-08-03T11:03:33;34.40;99.90
12885;DHT22;6510;51.362;7.370;2022-08-03T11:06:17;33.90;99.90
12885;DHT22;6510;51.362;7.370;2022-08-03T11:08:44;34.10;99.90
12885;DHT22;6510;51.362;7.370;2022-08-03T11:14:02;33.50;99.90
12885;DHT22;6510;51.362;7.370;2022-08-03T11:16:30;33.10;99.90
12885;DHT22;6510;51.362;7.370;2022-08-03T11:19:04;33.50;99.90
12885;DHT22;6510;51.362;7.370;2022-08-03T11:27:23;33.40;99.90
12885;DHT22;6510;51.362;7.370;2022-08-03T11:40:43;32.70;99.90
12885;DHT22;6510;51.362;7.370;2022-08-03T11:48:40;33.80;99.90
12885;DHT22;6510;51.362;7.370;2022-08-03T11:51:20;34.10;99.90
12885;DHT22;6510;51.362;7.370;2022-08-03T11:53:53;34.90;99.90
12885;DHT22;6510;51.362;7.370;2022-08-03T11:56:20;34.60;99.90
12885;DHT22;6510;51.362;7.370;2022-08-03T11:58:47;34.20;99.90
12885;DHT22;6510;51.362;7.370;2022-08-03T12:01:13;34.20;99.90
12885;DHT22;6510;51.362;7.370;2022-08-03T12:03:41;34.80;99.90
12885;DHT22;6510;51.362;7.370;2022-08-03T12:06:11;35.40;99.90
12885;DHT22;6510;51.362;7.370;2022-08-03T12:08:38;34.00;99.90
12885;DHT22;6510;51.362;7.370;2022-08-03T12:11:05;33.30;99.90
12885;DHT22;6510;51.362;7.370;2022-08-03T12:16:01;34.10;99.90
12885;DHT22;6510;51.362;7.370;2022-08-03T12:18:27;34.10;99.90
12885;DHT22;6510;51.362;7.370;2022-08-03T12:21:06;34.50;99.90
12885;DHT22;6510;51.362;7.370;2022-08-03T12:23:32;35.20;99.90
12885;DHT22;6510;51.362;7.370;2022-08-03T12:26:03;34.90;99.90
12885;DHT22;6510;51.362;7.370;2022-08-03T12:28:29;34.90;99.90
12885;DHT22;6510;51.362;7.370;2022-08-03T12:30:55;34.90;99.90
12885;DHT22;6510;51.362;7.370;2022-08-03T12:33:26;35.00;99.90
12885;DHT22;6510;51.362;7.370;2022-08-03T12:36:08;35.00;99.90
12885;DHT22;6510;51.362;7.370;2022-08-03T12:38:38;34.90;99.90
12885;DHT22;6510;51.362;7.370;2022-08-03T12:41:09;34.10;99.90
12885;DHT22;6510;51.362;7.370;2022-08-03T12:43:50;33.90;99.90
12885;DHT22;6510;51.362;7.370;2022-08-03T12:46:17;34.10;99.90
12885;DHT22;6510;51.362;7.370;2022-08-03T12:49:07;33.00;99.90
12885;DHT22;6510;51.362;7.370;2022-08-03T12:51:56;33.10;99.90
12885;DHT22;6510;51.362;7.370;2022-08-03T12:54:26;33.60;99.90
12885;DHT22;6510;51.362;7.370;2022-08-03T12:59:43;35.00;99.90
12885;DHT22;6510;51.362;7.370;2022-08-03T13:02:22;34.00;99.90
12885;DHT22;6510;51.362;7.370;2022-08-03T13:04:48;34.80;99.90
12885;DHT22;6510;51.362;7.370;2022-08-03T13:07:15;34.30;99.90
12885;DHT22;6510;51.362;7.370;2022-08-03T13:12:11;34.50;99.90
12885;DHT22;6510;51.362;7.370;2022-08-03T13:14:37;34.80;99.90
12885;DHT22;6510;51.362;7.370;2022-08-03T13:17:04;34.30;99.90
12885;DHT22;6510;51.362;7.370;2022-08-03T13:19:36;34.60;99.90
12885;DHT22;6510;51.362;7.370;2022-08-03T13:22:15;34.70;99.90
12885;DHT22;6510;51.362;7.370;2022-08-03T13:24:43;33.80;99.90
12885;DHT22;6510;51.362;7.370;2022-08-03T13:27:09;34.60;99.90
12885;DHT22;6510;51.362;7.370;2022-08-03T13:29:35;34.30;99.90
12885;DHT22;6510;51.362;7.370;2022-08-03T13:32:02;34.20;99.90
12885;DHT22;6510;51.362;7.370;2022-08-03T13:34:28;34.70;99.90
12885;DHT22;6510;51.362;7.370;2022-08-03T13:36:53;34.80;99.90
12885;DHT22;6510;51.362;7.370;2022-08-03T13:39:19;33.80;99.90
12885;DHT22;6510;51.362;7.370;2022-08-03T13:41:45;33.30;99.90
12885;DHT22;6510;51.362;7.370;2022-08-03T13:44:11;33.80;99.90
12885;DHT22;6510;51.362;7.370;2022-08-03T13:46:37;33.60;99.90
12885;DHT22;6510;51.362;7.370;2022-08-03T13:49:03;33.00;99.90
12885;DHT22;6510;51.362;7.370;2022-08-03T13:51:29;33.50;99.90
12885;DHT22;6510;51.362;7.370;2022-08-03T13:53:55;34.60;99.90
12885;DHT22;6510;51.362;7.370;2022-08-03T13:56:21;33.50;99.90
12885;DHT22;6510;51.362;7.370;2022-08-03T13:58:47;33.90;99.90
12885;DHT22;6510;51.362;7.370;2022-08-03T14:04:34;33.40;99.90
12885;DHT22;6510;51.362;7.370;2022-08-03T14:06:59;33.80;99.90
12885;DHT22;6510;51.362;7.370;2022-08-03T14:09:25;33.70;99.90
12885;DHT22;6510;51.362;7.370;2022-08-03T14:11:51;34.70;99.90
12885;DHT22;6510;51.362;7.370;2022-08-03T14:14:16;34.80;99.90
12885;DHT22;6510;51.362;7.370;2022-08-03T14:16:42;34.00;99.90
12885;DHT22;6510;51.362;7.370;2022-08-03T14:19:08;33.60;99.90
12885;DHT22;6510;51.362;7.370;2022-08-03T14:21:33;34.00;99.90
12885;DHT22;6510;51.362;7.370;2022-08-03T14:24:00;34.10;99.90
12885;DHT22;6510;51.362;7.370;2022-08-03T14:26:25;34.30;99.90
12885;DHT22;6510;51.362;7.370;2022-08-03T14:28:51;33.50;99.90
12885;DHT22;6510;51.362;7.370;2022-08-03T14:31:16;34.10;99.90
12885;DHT22;6510;51.362;7.370;2022-08-03T14:33:42;33.90;99.20
12885;DHT22;6510;51.362;7.370;2022-08-03T14:36:08;34.10;99.20
12885;DHT22;6510;51.362;7.370;2022-08-03T14:38:33;34.00;99.90
12885;DHT22;6510;51.362;7.370;2022-08-03T14:40:59;33.60;99.90
12885;DHT22;6510;51.362;7.370;2022-08-03T14:43:24;33.50;99.70
12885;DHT22;6510;51.362;7.370;2022-08-03T14:45:51;32.90;99.90
12885;DHT22;6510;51.362;7.370;2022-08-03T14:48:19;33.00;99.90
12885;DHT22;6510;51.362;7.370;2022-08-03T14:50:44;32.70;99.90
12885;DHT22;6510;51.362;7.370;2022-08-03T14:53:10;32.90;99.90
12885;DHT22;6510;51.362;7.370;2022-08-03T14:55:36;32.90;99.90
12885;DHT22;6510;51.362;7.370;2022-08-03T14:58:04;33.10;99.90
12885;DHT22;6510;51.362;7.370;2022-08-03T15:00:34;33.50;99.80
12885;DHT22;6510;51.362;7.370;2022-08-03T15:03:01;32.90;99.70
12885;DHT22;6510;51.362;7.370;2022-08-03T15:05:27;33.20;99.70
12885;DHT22;6510;51.362;7.370;2022-08-03T15:07:52;32.70;99.80
12885;DHT22;6510;51.362;7.370;2022-08-03T15:10:18;33.10;99.90
12885;DHT22;6510;51.362;7.370;2022-08-03T15:12:44;33.10;99.30
12885;DHT22;6510;51.362;7.370;2022-08-03T15:15:10;33.30;99.70
12885;DHT22;6510;51.362;7.370;2022-08-03T15:17:35;32.60;98.60
12885;DHT22;6510;51.362;7.370;2022-08-03T15:20:02;32.70;99.50
12885;DHT22;6510;51.362;7.370;2022-08-03T15:22:27;32.90;99.70
12885;DHT22;6510;51.362;7.370;2022-08-03T15:24:53;33.00;98.50
12885;DHT22;6510;51.362;7.370;2022-08-03T15:27:20;32.80;99.50
12885;DHT22;6510;51.362;7.370;2022-08-03T15:29:46;32.90;99.10
12885;DHT22;6510;51.362;7.370;2022-08-03T15:32:12;33.10;99.50
12885;DHT22;6510;51.362;7.370;2022-08-03T15:34:37;33.10;99.90
12885;DHT22;6510;51.362;7.370;2022-08-03T15:37:03;33.20;99.10
12885;DHT22;6510;51.362;7.370;2022-08-03T15:39:29;32.70;98.50
12885;DHT22;6510;51.362;7.370;2022-08-03T15:41:55;32.80;99.30
12885;DHT22;6510;51.362;7.370;2022-08-03T15:44:21;32.00;98.80
12885;DHT22;6510;51.362;7.370;2022-08-03T15:46:46;32.00;99.10
12885;DHT22;6510;51.362;7.370;2022-08-03T15:49:12;31.70;99.70
12885;DHT22;6510;51.362;7.370;2022-08-03T15:51:38;31.80;99.20
12885;DHT22;6510;51.362;7.370;2022-08-03T15:54:05;31.90;99.90
12885;DHT22;6510;51.362;7.370;2022-08-03T15:56:31;31.50;99.90
12885;DHT22;6510;51.362;7.370;2022-08-03T15:58:57;31.50;99.90
12885;DHT22;6510;51.362;7.370;2022-08-03T16:01:23;31.40;99.60
12885;DHT22;6510;51.362;7.370;2022-08-03T16:03:50;31.40;99.90
12885;DHT22;6510;51.362;7.370;2022-08-03T16:06:16;31.50;99.90
12885;DHT22;6510;51.362;7.370;2022-08-03T16:08:42;31.30;99.90
12885;DHT22;6510;51.362;7.370;2022-08-03T16:11:08;31.30;99.90
12885;DHT22;6510;51.362;7.370;2022-08-03T16:13:33;31.40;99.90
12885;DHT22;6510;51.362;7.370;2022-08-03T16:15:59;31.60;99.90
12885;DHT22;6510;51.362;7.370;2022-08-03T16:18:25;31.40;99.90
12885;DHT22;6510;51.362;7.370;2022-08-03T16:20:50;31.30;99.90
12885;DHT22;6510;51.362;7.370;2022-08-03T16:23:17;31.10;99.90
12885;DHT22;6510;51.362;7.370;2022-08-03T16:25:45;31.10;99.90
12885;DHT22;6510;51.362;7.370;2022-08-03T16:28:11;31.10;99.90
12885;DHT22;6510;51.362;7.370;2022-08-03T16:30:38;31.00;99.90
12885;DHT22;6510;51.362;7.370;2022-08-03T16:33:03;30.50;99.90
12885;DHT22;6510;51.362;7.370;2022-08-03T16:35:29;30.70;99.90
12885;DHT22;6510;51.362;7.370;2022-08-03T16:37:55;30.60;99.90
12885;DHT22;6510;51.362;7.370;2022-08-03T16:40:21;30.40;99.90
12885;DHT22;6510;51.362;7.370;2022-08-03T16:42:47;30.50;99.90
12885;DHT22;6510;51.362;7.370;2022-08-03T16:45:13;30.60;99.90
12885;DHT22;6510;51.362;7.370;2022-08-03T16:47:38;30.50;99.90